KMDD/MDD METAR and TAF weather

Enter ICAO airport designator
Station Type Date Time Source
KMDD METAR 2019/04/21 21:55 UTC NOAA

KMDD 212155Z AUTO 25008G17KT 10SM 33/04 A2985 RMK AO2 T03320044


Station Type Date Time Source
KMDD Decoded METAR 2019/04/21 21:55 UTC NOAA

Midland, Midland Airpark, TX, United States (KMDD) 32-02-11N 102-06-03W
Apr 21, 2019 - 05:55 PM EDT / 2019.04.21 2155 UTC
Wind: from the WSW (250 degrees) at 9 MPH (8 KT) gusting to 20 MPH (17 KT):0
Visibility: 10 mile(s):0
Temperature: 91.8 F (33.2 C)
Dew Point: 39.9 F (4.4 C)
Relative Humidity: 16%
Pressure (altimeter): 29.85 in. Hg (1010 hPa)
ob: KMDD 212155Z AUTO 25008G17KT 10SM 33/04 A2985 RMK AO2 T03320044
cycle: 22

Station Type Date Time Source
KMDD TAF UTC NOAA

Error!

Example: see airport list